Data Viewer
| City | State | Eastern Time | Source | Temp | DewPt | RH | BP | 5 Min Precip | Wind Speed | Wind Dir | 5 Min Wind Max | 5 Min Wind Max Dir |
|---|---|---|---|---|---|---|---|---|---|---|---|---|
| Berkeley Twp. | NJ | 2026-05-04 21:15 | Mesonet | 60 | 49 | 69 | 29.88 | 0.00 | 7 | SSW | 10 | SSW |
| Berkeley Twp. | NJ | 2026-05-05 13:05 | Mesonet | 84 | 54 | 36 | 29.85 | 0.00 | 14 | SW | 22 | SSW |
| Berkeley Twp. | NJ | 2026-05-05 13:35 | Mesonet | 82 | 59 | 45 | 29.85 | 0.00 | 12 | SSW | 18 | S |
| Berkeley Twp. | NJ | 2026-05-05 13:30 | Mesonet | 84 | 56 | 39 | 29.85 | 0.00 | 18 | SSW | 19 | SSW |
| Berkeley Twp. | NJ | 2026-05-05 13:25 | Mesonet | 85 | 56 | 38 | 29.85 | 0.00 | 10 | SSW | 20 | SW |
| Berkeley Twp. | NJ | 2026-05-05 13:20 | Mesonet | 84 | 54 | 35 | 29.85 | 0.00 | 12 | SW | 19 | SW |
| Berkeley Twp. | NJ | 2026-05-05 13:15 | Mesonet | 83 | 54 | 37 | 29.85 | 0.00 | 9 | SSW | 23 | SW |
| Berkeley Twp. | NJ | 2026-05-05 13:10 | Mesonet | 83 | 54 | 37 | 29.85 | 0.00 | 8 | SSW | 16 | WSW |
| Berkeley Twp. | NJ | 2026-05-05 13:00 | Mesonet | 83 | 53 | 36 | 29.85 | 0.00 | 13 | SSW | 21 | SW |
| Berkeley Twp. | NJ | 2026-05-05 13:45 | Mesonet | 82 | 58 | 44 | 29.85 | 0.00 | 15 | S | 23 | SSE |
| Berkeley Twp. | NJ | 2026-05-05 12:55 | Mesonet | 83 | 54 | 36 | 29.86 | 0.00 | 10 | SW | 22 | SW |
| Berkeley Twp. | NJ | 2026-05-05 12:50 | Mesonet | 83 | 52 | 35 | 29.85 | 0.00 | 21 | SW | 22 | SW |
| Berkeley Twp. | NJ | 2026-05-05 12:45 | Mesonet | 82 | 54 | 38 | 29.86 | 0.00 | 15 | SSW | 20 | SSW |
| Berkeley Twp. | NJ | 2026-05-05 12:40 | Mesonet | 83 | 55 | 39 | 29.86 | 0.00 | 11 | SW | 19 | SW |
| Berkeley Twp. | NJ | 2026-05-05 12:35 | Mesonet | 83 | 53 | 35 | 29.86 | 0.00 | 15 | WSW | 19 | SW |
| Berkeley Twp. | NJ | 2026-05-05 12:30 | Mesonet | 82 | 53 | 37 | 29.86 | 0.00 | 11 | SSW | 18 | SSW |
| Berkeley Twp. | NJ | 2026-05-05 13:40 | Mesonet | 83 | 59 | 44 | 29.85 | 0.00 | 11 | S | 19 | SSE |
| Berkeley Twp. | NJ | 2026-05-05 13:50 | Mesonet | 83 | 59 | 44 | 29.85 | 0.00 | 12 | SSE | 20 | SSW |
| Berkeley Twp. | NJ | 2026-05-05 12:20 | Mesonet | 81 | 55 | 40 | 29.87 | 0.00 | 11 | SSW | 17 | S |
| Berkeley Twp. | NJ | 2026-05-05 14:35 | Mesonet | 82 | 58 | 43 | 29.84 | 0.00 | 15 | SSE | 28 | S |
| Berkeley Twp. | NJ | 2026-05-05 15:05 | Mesonet | 82 | 57 | 42 | 29.83 | 0.00 | 22 | S | 28 | S |
| Berkeley Twp. | NJ | 2026-05-05 15:00 | Mesonet | 82 | 57 | 42 | 29.83 | 0.00 | 23 | SSE | 29 | SSE |
| Berkeley Twp. | NJ | 2026-05-05 14:55 | Mesonet | 82 | 57 | 42 | 29.83 | 0.00 | 14 | S | 27 | S |
| Berkeley Twp. | NJ | 2026-05-05 14:50 | Mesonet | 82 | 57 | 43 | 29.84 | 0.00 | 15 | SE | 27 | SSE |
| Berkeley Twp. | NJ | 2026-05-05 14:45 | Mesonet | 82 | 57 | 43 | 29.84 | 0.00 | 17 | SSE | 27 | S |
| Berkeley Twp. | NJ | 2026-05-05 14:40 | Mesonet | 82 | 58 | 44 | 29.84 | 0.00 | 20 | SSE | 23 | S |
| Berkeley Twp. | NJ | 2026-05-05 14:30 | Mesonet | 82 | 58 | 43 | 29.83 | 0.00 | 26 | S | 27 | S |
| Berkeley Twp. | NJ | 2026-05-05 13:55 | Mesonet | 82 | 58 | 44 | 29.85 | 0.00 | 17 | S | 21 | SSE |
| Berkeley Twp. | NJ | 2026-05-05 14:25 | Mesonet | 82 | 60 | 47 | 29.84 | 0.00 | 14 | S | 23 | SSE |
| Berkeley Twp. | NJ | 2026-05-05 14:20 | Mesonet | 83 | 60 | 46 | 29.84 | 0.00 | 8 | SSE | 23 | SSE |
| Berkeley Twp. | NJ | 2026-05-05 14:15 | Mesonet | 82 | 58 | 45 | 29.84 | 0.00 | 13 | SSE | 23 | SSE |
| Berkeley Twp. | NJ | 2026-05-05 14:10 | Mesonet | 82 | 59 | 45 | 29.84 | 0.00 | 19 | S | 26 | SSE |
| Berkeley Twp. | NJ | 2026-05-05 14:05 | Mesonet | 82 | 58 | 45 | 29.85 | 0.00 | 17 | SSE | 22 | SSW |
| Berkeley Twp. | NJ | 2026-05-05 14:00 | Mesonet | 83 | 58 | 44 | 29.85 | 0.00 | 12 | SSW | 23 | S |
| Berkeley Twp. | NJ | 2026-05-05 12:25 | Mesonet | 82 | 56 | 41 | 29.87 | 0.00 | 19 | SW | 19 | SW |
| Berkeley Twp. | NJ | 2026-05-05 12:15 | Mesonet | 81 | 55 | 40 | 29.87 | 0.00 | 15 | SSW | 16 | SSW |
| Berkeley Twp. | NJ | 2026-05-05 15:15 | Mesonet | 82 | 57 | 42 | 29.83 | 0.00 | 17 | SSW | 23 | S |
| Berkeley Twp. | NJ | 2026-05-05 10:05 | Mesonet | 74 | 54 | 49 | 29.90 | 0.00 | 13 | SW | 19 | SSW |
| Berkeley Twp. | NJ | 2026-05-05 10:35 | Mesonet | 76 | 53 | 45 | 29.90 | 0.00 | 8 | WSW | 17 | WSW |
| Berkeley Twp. | NJ | 2026-05-05 10:30 | Mesonet | 77 | 55 | 46 | 29.90 | 0.00 | 15 | SSW | 16 | SSW |
| Berkeley Twp. | NJ | 2026-05-05 10:25 | Mesonet | 75 | 53 | 46 | 29.90 | 0.00 | 11 | WSW | 19 | WSW |
| Berkeley Twp. | NJ | 2026-05-05 10:20 | Mesonet | 75 | 54 | 47 | 29.90 | 0.00 | 8 | SW | 16 | WSW |
| Berkeley Twp. | NJ | 2026-05-05 10:15 | Mesonet | 76 | 54 | 48 | 29.90 | 0.00 | 13 | WSW | 16 | WSW |
| Berkeley Twp. | NJ | 2026-05-05 10:10 | Mesonet | 74 | 52 | 46 | 29.90 | 0.00 | 11 | WSW | 18 | SW |
| Berkeley Twp. | NJ | 2026-05-05 10:00 | Mesonet | 74 | 54 | 49 | 29.90 | 0.00 | 15 | SW | 19 | SW |
| Berkeley Twp. | NJ | 2026-05-05 10:45 | Mesonet | 76 | 53 | 44 | 29.90 | 0.00 | 10 | WSW | 18 | SW |
| Berkeley Twp. | NJ | 2026-05-05 09:55 | Mesonet | 73 | 53 | 49 | 29.89 | 0.00 | 13 | WSW | 17 | SW |
| Berkeley Twp. | NJ | 2026-05-05 09:50 | Mesonet | 73 | 53 | 49 | 29.89 | 0.00 | 13 | SW | 19 | WSW |
| Berkeley Twp. | NJ | 2026-05-05 09:45 | Mesonet | 74 | 54 | 50 | 29.89 | 0.00 | 20 | WSW | 20 | WSW |
| Berkeley Twp. | NJ | 2026-05-05 09:40 | Mesonet | 72 | 53 | 51 | 29.90 | 0.00 | 10 | SW | 18 | SW |
| Berkeley Twp. | NJ | 2026-05-05 09:35 | Mesonet | 73 | 54 | 51 | 29.90 | 0.00 | 11 | SW | 17 | SW |
| Berkeley Twp. | NJ | 2026-05-05 09:30 | Mesonet | 72 | 54 | 53 | 29.90 | 0.00 | 11 | WSW | 18 | SW |
| Berkeley Twp. | NJ | 2026-05-05 10:40 | Mesonet | 77 | 54 | 45 | 29.90 | 0.00 | 17 | SW | 17 | SW |
| Berkeley Twp. | NJ | 2026-05-05 10:50 | Mesonet | 77 | 54 | 44 | 29.89 | 0.00 | 10 | WSW | 17 | WSW |
| Berkeley Twp. | NJ | 2026-05-05 12:10 | Mesonet | 81 | 52 | 37 | 29.87 | 0.00 | 14 | WSW | 18 | WSW |
| Berkeley Twp. | NJ | 2026-05-05 11:35 | Mesonet | 80 | 55 | 43 | 29.89 | 0.00 | 16 | SW | 18 | SW |
| Berkeley Twp. | NJ | 2026-05-05 12:05 | Mesonet | 81 | 53 | 37 | 29.88 | 0.00 | 12 | W | 19 | W |
| Berkeley Twp. | NJ | 2026-05-05 12:00 | Mesonet | 80 | 54 | 40 | 29.88 | 0.00 | 13 | WSW | 17 | WSW |
| Berkeley Twp. | NJ | 2026-05-05 11:55 | Mesonet | 80 | 55 | 41 | 29.88 | 0.00 | 10 | SSW | 17 | SW |
| Berkeley Twp. | NJ | 2026-05-05 11:50 | Mesonet | 80 | 54 | 41 | 29.88 | 0.00 | 8 | SW | 12 | SW |
| Berkeley Twp. | NJ | 2026-05-05 11:45 | Mesonet | 79 | 54 | 41 | 29.88 | 0.00 | 7 | SW | 22 | SW |
| Berkeley Twp. | NJ | 2026-05-05 11:40 | Mesonet | 79 | 53 | 41 | 29.89 | 0.00 | 9 | SW | 17 | SSW |
| Berkeley Twp. | NJ | 2026-05-05 11:30 | Mesonet | 79 | 54 | 42 | 29.89 | 0.00 | 16 | SW | 16 | SW |
| Berkeley Twp. | NJ | 2026-05-05 10:55 | Mesonet | 77 | 54 | 44 | 29.89 | 0.00 | 6 | W | 15 | WSW |
| Berkeley Twp. | NJ | 2026-05-05 11:25 | Mesonet | 78 | 54 | 43 | 29.89 | 0.00 | 6 | SW | 18 | SSW |
| Berkeley Twp. | NJ | 2026-05-05 11:20 | Mesonet | 78 | 54 | 43 | 29.89 | 0.00 | 5 | SW | 16 | SSW |
| Berkeley Twp. | NJ | 2026-05-05 11:15 | Mesonet | 78 | 54 | 43 | 29.89 | 0.00 | 10 | SSW | 14 | SSW |
| Berkeley Twp. | NJ | 2026-05-05 11:10 | Mesonet | 78 | 53 | 42 | 29.89 | 0.00 | 7 | W | 17 | SSW |
| Berkeley Twp. | NJ | 2026-05-05 11:05 | Mesonet | 78 | 54 | 44 | 29.89 | 0.00 | 15 | SW | 15 | SW |
| Berkeley Twp. | NJ | 2026-05-05 11:00 | Mesonet | 78 | 54 | 44 | 29.89 | 0.00 | 10 | SW | 16 | WSW |
| Berkeley Twp. | NJ | 2026-05-05 15:10 | Mesonet | 82 | 57 | 42 | 29.83 | 0.00 | 19 | S | 24 | SSW |
| Berkeley Twp. | NJ | 2026-05-05 15:20 | Mesonet | 82 | 57 | 43 | 29.83 | 0.00 | 14 | S | 26 | SSW |
| Berkeley Twp. | NJ | 2026-05-05 09:20 | Mesonet | 71 | 54 | 54 | 29.90 | 0.00 | 14 | WSW | 18 | WSW |
| Berkeley Twp. | NJ | 2026-05-05 19:10 | Mesonet | 72 | 54 | 54 | 29.85 | 0.00 | 17 | SSW | 27 | SSW |
| Berkeley Twp. | NJ | 2026-05-05 19:40 | Mesonet | 70 | 54 | 57 | 29.86 | 0.00 | 19 | SSW | 30 | SSW |
| Berkeley Twp. | NJ | 2026-05-05 19:35 | Mesonet | 70 | 54 | 57 | 29.86 | 0.00 | 19 | S | 29 | SSW |
| Berkeley Twp. | NJ | 2026-05-05 19:30 | Mesonet | 70 | 54 | 57 | 29.86 | 0.00 | 23 | SSW | 28 | SSW |
| Berkeley Twp. | NJ | 2026-05-05 19:25 | Mesonet | 70 | 54 | 56 | 29.85 | 0.00 | 22 | SSW | 31 | SSW |
| Berkeley Twp. | NJ | 2026-05-05 19:20 | Mesonet | 71 | 54 | 55 | 29.85 | 0.00 | 18 | SSW | 29 | SSW |
| Berkeley Twp. | NJ | 2026-05-05 19:15 | Mesonet | 71 | 54 | 55 | 29.85 | 0.00 | 19 | S | 25 | S |
| Berkeley Twp. | NJ | 2026-05-05 19:05 | Mesonet | 72 | 54 | 54 | 29.85 | 0.00 | 22 | SSW | 24 | SSW |
| Berkeley Twp. | NJ | 2026-05-05 19:50 | Mesonet | 69 | 54 | 57 | 29.86 | 0.00 | 20 | SSW | 29 | SSW |
| Berkeley Twp. | NJ | 2026-05-05 19:00 | Mesonet | 73 | 54 | 53 | 29.85 | 0.00 | 18 | SSW | 21 | S |
| Berkeley Twp. | NJ | 2026-05-05 18:55 | Mesonet | 73 | 55 | 52 | 29.85 | 0.00 | 16 | SSW | 21 | SSW |
| Berkeley Twp. | NJ | 2026-05-05 18:50 | Mesonet | 73 | 54 | 51 | 29.85 | 0.00 | 11 | SSW | 23 | SW |
| Berkeley Twp. | NJ | 2026-05-05 18:45 | Mesonet | 74 | 54 | 51 | 29.84 | 0.00 | 19 | SSW | 23 | SSW |
| Berkeley Twp. | NJ | 2026-05-05 18:40 | Mesonet | 73 | 54 | 51 | 29.84 | 0.00 | 15 | SW | 26 | SSW |
| Berkeley Twp. | NJ | 2026-05-05 18:35 | Mesonet | 74 | 54 | 51 | 29.84 | 0.00 | 18 | SSW | 27 | S |
| Berkeley Twp. | NJ | 2026-05-05 19:45 | Mesonet | 69 | 54 | 58 | 29.86 | 0.00 | 15 | SSW | 29 | SSW |
| Berkeley Twp. | NJ | 2026-05-05 19:55 | Mesonet | 69 | 54 | 58 | 29.87 | 0.00 | 17 | SSW | 26 | S |
| Berkeley Twp. | NJ | 2026-05-05 18:25 | Mesonet | 75 | 55 | 49 | 29.84 | 0.00 | 15 | SSW | 21 | S |
| Berkeley Twp. | NJ | 2026-05-05 20:40 | Mesonet | 68 | 54 | 62 | 29.88 | 0.00 | 12 | SSW | 24 | SSW |
| Berkeley Twp. | NJ | 2026-05-05 21:10 | Mesonet | 67 | 55 | 65 | 29.88 | 0.00 | 13 | SSW | 23 | SSW |
| Berkeley Twp. | NJ | 2026-05-05 21:05 | Mesonet | 68 | 55 | 64 | 29.88 | 0.00 | 17 | WSW | 24 | SSW |
| Berkeley Twp. | NJ | 2026-05-05 21:00 | Mesonet | 67 | 55 | 64 | 29.88 | 0.00 | 13 | S | 20 | SW |
| Berkeley Twp. | NJ | 2026-05-05 20:55 | Mesonet | 68 | 55 | 63 | 29.87 | 0.00 | 18 | SSW | 20 | S |
| Berkeley Twp. | NJ | 2026-05-05 20:50 | Mesonet | 68 | 55 | 63 | 29.88 | 0.00 | 13 | SSW | 20 | SSW |
| Berkeley Twp. | NJ | 2026-05-05 20:45 | Mesonet | 68 | 54 | 63 | 29.88 | 0.00 | 9 | SSW | 19 | SSW |
| Berkeley Twp. | NJ | 2026-05-05 20:35 | Mesonet | 68 | 54 | 62 | 29.87 | 0.00 | 18 | SSW | 19 | SSW |
| Berkeley Twp. | NJ | 2026-05-05 20:00 | Mesonet | 69 | 54 | 59 | 29.87 | 0.00 | 9 | S | 19 | SSW |
| Berkeley Twp. | NJ | 2026-05-05 20:30 | Mesonet | 68 | 54 | 61 | 29.87 | 0.00 | 21 | SSW | 21 | SSW |
| Berkeley Twp. | NJ | 2026-05-05 20:25 | Mesonet | 68 | 54 | 61 | 29.87 | 0.00 | 20 | SSW | 21 | S |
| Berkeley Twp. | NJ | 2026-05-05 20:20 | Mesonet | 68 | 54 | 60 | 29.87 | 0.00 | 16 | SSW | 24 | SSW |
| Berkeley Twp. | NJ | 2026-05-05 20:15 | Mesonet | 68 | 54 | 61 | 29.87 | 0.00 | 14 | SSW | 23 | S |
| Berkeley Twp. | NJ | 2026-05-05 20:10 | Mesonet | 68 | 54 | 60 | 29.87 | 0.00 | 14 | SSW | 20 | SSW |
| Berkeley Twp. | NJ | 2026-05-05 20:05 | Mesonet | 69 | 54 | 59 | 29.87 | 0.00 | 16 | S | 27 | SSW |
| Berkeley Twp. | NJ | 2026-05-05 18:30 | Mesonet | 74 | 54 | 49 | 29.84 | 0.00 | 18 | SSW | 32 | S |
| Berkeley Twp. | NJ | 2026-05-05 18:20 | Mesonet | 75 | 55 | 50 | 29.84 | 0.00 | 14 | SSW | 23 | SSW |
| Berkeley Twp. | NJ | 2026-05-05 15:25 | Mesonet | 82 | 57 | 42 | 29.82 | 0.00 | 17 | SSE | 23 | S |
| Berkeley Twp. | NJ | 2026-05-05 16:05 | Mesonet | 81 | 57 | 44 | 29.82 | 0.00 | 15 | S | 23 | SSW |
| Berkeley Twp. | NJ | 2026-05-05 16:35 | Mesonet | 80 | 56 | 44 | 29.81 | 0.00 | 26 | SSW | 27 | S |
| Berkeley Twp. | NJ | 2026-05-05 16:30 | Mesonet | 79 | 56 | 44 | 29.81 | 0.00 | 21 | SSW | 30 | S |
| Berkeley Twp. | NJ | 2026-05-05 16:25 | Mesonet | 80 | 56 | 45 | 29.82 | 0.00 | 15 | S | 30 | S |
| Berkeley Twp. | NJ | 2026-05-05 16:20 | Mesonet | 80 | 56 | 44 | 29.82 | 0.00 | 18 | SSW | 27 | S |
| Berkeley Twp. | NJ | 2026-05-05 16:15 | Mesonet | 80 | 57 | 44 | 29.82 | 0.00 | 20 | S | 27 | S |
| Berkeley Twp. | NJ | 2026-05-05 16:10 | Mesonet | 80 | 56 | 44 | 29.82 | 0.00 | 19 | SSW | 27 | SSW |
| Berkeley Twp. | NJ | 2026-05-05 16:00 | Mesonet | 81 | 57 | 44 | 29.82 | 0.00 | 15 | SSW | 27 | S |
| Berkeley Twp. | NJ | 2026-05-05 16:45 | Mesonet | 80 | 56 | 44 | 29.82 | 0.00 | 16 | SSW | 27 | SW |
| Berkeley Twp. | NJ | 2026-05-05 15:55 | Mesonet | 80 | 56 | 44 | 29.82 | 0.00 | 22 | S | 30 | S |
| Berkeley Twp. | NJ | 2026-05-05 15:50 | Mesonet | 81 | 57 | 44 | 29.82 | 0.00 | 18 | S | 29 | SSW |
| Berkeley Twp. | NJ | 2026-05-05 15:45 | Mesonet | 81 | 56 | 43 | 29.81 | 0.00 | 23 | SSW | 29 | S |
| Berkeley Twp. | NJ | 2026-05-05 15:40 | Mesonet | 81 | 56 | 42 | 29.82 | 0.00 | 20 | S | 30 | S |
| Berkeley Twp. | NJ | 2026-05-05 15:35 | Mesonet | 82 | 56 | 42 | 29.82 | 0.00 | 21 | S | 26 | S |
| Berkeley Twp. | NJ | 2026-05-05 15:30 | Mesonet | 81 | 57 | 43 | 29.83 | 0.00 | 23 | SSW | 28 | S |
| Berkeley Twp. | NJ | 2026-05-05 16:40 | Mesonet | 80 | 56 | 44 | 29.81 | 0.00 | 15 | S | 30 | SSW |
| Berkeley Twp. | NJ | 2026-05-05 16:50 | Mesonet | 80 | 56 | 44 | 29.82 | 0.00 | 20 | SSW | 24 | S |
| Berkeley Twp. | NJ | 2026-05-05 18:15 | Mesonet | 75 | 54 | 49 | 29.84 | 0.00 | 17 | S | 26 | SSW |
| Berkeley Twp. | NJ | 2026-05-05 17:40 | Mesonet | 77 | 54 | 46 | 29.83 | 0.00 | 14 | SSW | 26 | SSW |
| Berkeley Twp. | NJ | 2026-05-05 18:10 | Mesonet | 75 | 54 | 48 | 29.84 | 0.00 | 18 | SSW | 25 | S |
| Berkeley Twp. | NJ | 2026-05-05 18:05 | Mesonet | 75 | 54 | 48 | 29.84 | 0.00 | 8 | S | 29 | SSW |
| Berkeley Twp. | NJ | 2026-05-05 18:00 | Mesonet | 76 | 54 | 47 | 29.84 | 0.00 | 17 | SSW | 22 | S |
| Berkeley Twp. | NJ | 2026-05-05 17:55 | Mesonet | 76 | 54 | 46 | 29.83 | 0.00 | 18 | SSW | 22 | SSW |
| Berkeley Twp. | NJ | 2026-05-05 17:50 | Mesonet | 76 | 54 | 46 | 29.84 | 0.00 | 18 | SSW | 25 | S |
| Berkeley Twp. | NJ | 2026-05-05 17:45 | Mesonet | 77 | 54 | 46 | 29.83 | 0.00 | 16 | SSW | 22 | SSW |
| Berkeley Twp. | NJ | 2026-05-05 17:35 | Mesonet | 78 | 54 | 45 | 29.83 | 0.00 | 18 | SSW | 25 | SSW |
| Berkeley Twp. | NJ | 2026-05-05 16:55 | Mesonet | 79 | 55 | 44 | 29.82 | 0.00 | 24 | SSW | 28 | SSW |
| Berkeley Twp. | NJ | 2026-05-05 17:30 | Mesonet | 78 | 54 | 44 | 29.83 | 0.00 | 19 | SSW | 24 | S |
| Berkeley Twp. | NJ | 2026-05-05 17:25 | Mesonet | 78 | 55 | 45 | 29.83 | 0.00 | 13 | SSW | 24 | S |
| Berkeley Twp. | NJ | 2026-05-05 17:20 | Mesonet | 78 | 55 | 45 | 29.82 | 0.00 | 24 | SSW | 27 | SSW |
| Berkeley Twp. | NJ | 2026-05-05 17:15 | Mesonet | 78 | 55 | 45 | 29.83 | 0.00 | 17 | S | 26 | SSW |
| Berkeley Twp. | NJ | 2026-05-05 17:10 | Mesonet | 79 | 56 | 45 | 29.83 | 0.00 | 15 | SSE | 25 | S |
| Berkeley Twp. | NJ | 2026-05-05 17:05 | Mesonet | 79 | 56 | 45 | 29.82 | 0.00 | 13 | S | 25 | S |
| Berkeley Twp. | NJ | 2026-05-05 17:00 | Mesonet | 79 | 56 | 45 | 29.82 | 0.00 | 12 | S | 25 | SSW |
| Berkeley Twp. | NJ | 2026-05-05 09:25 | Mesonet | 72 | 54 | 55 | 29.90 | 0.00 | 12 | WSW | 19 | WSW |
| Berkeley Twp. | NJ | 2026-05-05 09:15 | Mesonet | 71 | 54 | 55 | 29.90 | 0.00 | 13 | WSW | 19 | SW |
| Berkeley Twp. | NJ | 2026-05-04 21:20 | Mesonet | 60 | 49 | 69 | 29.89 | 0.00 | 8 | SSW | 12 | SSW |
| Berkeley Twp. | NJ | 2026-05-05 01:00 | Mesonet | 57 | 52 | 85 | 29.87 | 0.00 | 6 | S | 10 | SSW |
| Berkeley Twp. | NJ | 2026-05-05 01:30 | Mesonet | 57 | 52 | 86 | 29.86 | 0.00 | 7 | SSW | 9 | SSW |
| Berkeley Twp. | NJ | 2026-05-05 01:25 | Mesonet | 56 | 52 | 86 | 29.86 | 0.00 | 7 | S | 8 | SSW |
| Berkeley Twp. | NJ | 2026-05-05 01:20 | Mesonet | 57 | 52 | 85 | 29.86 | 0.00 | 7 | SSW | 11 | SSW |
| Berkeley Twp. | NJ | 2026-05-05 01:15 | Mesonet | 57 | 52 | 86 | 29.86 | 0.00 | 7 | SSW | 9 | SSW |
| Berkeley Twp. | NJ | 2026-05-05 01:10 | Mesonet | 57 | 52 | 84 | 29.87 | 0.00 | 5 | SSW | 10 | SSW |
| Berkeley Twp. | NJ | 2026-05-05 01:05 | Mesonet | 57 | 52 | 85 | 29.87 | 0.00 | 5 | SSW | 9 | SSW |
| Berkeley Twp. | NJ | 2026-05-05 00:55 | Mesonet | 57 | 52 | 84 | 29.87 | 0.00 | 6 | SSW | 9 | SSW |
| Berkeley Twp. | NJ | 2026-05-05 01:40 | Mesonet | 57 | 52 | 85 | 29.86 | 0.00 | 8 | SSW | 11 | SSW |
| Berkeley Twp. | NJ | 2026-05-05 00:50 | Mesonet | 57 | 52 | 84 | 29.87 | 0.00 | 8 | SSW | 8 | S |
| Berkeley Twp. | NJ | 2026-05-05 00:45 | Mesonet | 57 | 52 | 83 | 29.87 | 0.00 | 6 | SSW | 11 | SSW |
| Berkeley Twp. | NJ | 2026-05-05 00:40 | Mesonet | 58 | 52 | 82 | 29.87 | 0.00 | 6 | SSW | 11 | SSW |
| Berkeley Twp. | NJ | 2026-05-05 00:35 | Mesonet | 58 | 52 | 82 | 29.88 | 0.00 | 6 | SSW | 9 | SSW |
| Berkeley Twp. | NJ | 2026-05-05 00:30 | Mesonet | 58 | 52 | 82 | 29.87 | 0.00 | 11 | SSW | 12 | SW |
| Berkeley Twp. | NJ | 2026-05-05 00:25 | Mesonet | 58 | 52 | 82 | 29.87 | 0.00 | 9 | SSW | 11 | S |
| Berkeley Twp. | NJ | 2026-05-05 01:35 | Mesonet | 57 | 52 | 85 | 29.86 | 0.00 | 6 | SSW | 11 | SSW |
| Berkeley Twp. | NJ | 2026-05-05 01:45 | Mesonet | 57 | 52 | 86 | 29.86 | 0.00 | 7 | SSW | 10 | SSW |
| Berkeley Twp. | NJ | 2026-05-05 00:15 | Mesonet | 58 | 52 | 80 | 29.88 | 0.00 | 6 | S | 10 | SSW |
| Berkeley Twp. | NJ | 2026-05-05 02:30 | Mesonet | 57 | 53 | 86 | 29.85 | 0.00 | 6 | SSW | 11 | SW |
| Berkeley Twp. | NJ | 2026-05-05 03:00 | Mesonet | 57 | 53 | 86 | 29.85 | 0.00 | 6 | SW | 12 | SW |
| Berkeley Twp. | NJ | 2026-05-05 02:55 | Mesonet | 57 | 53 | 86 | 29.85 | 0.00 | 9 | SW | 11 | SSW |
| Berkeley Twp. | NJ | 2026-05-05 02:50 | Mesonet | 57 | 53 | 86 | 29.86 | 0.00 | 7 | SSW | 12 | SSW |
| Berkeley Twp. | NJ | 2026-05-05 02:45 | Mesonet | 57 | 53 | 86 | 29.86 | 0.00 | 10 | SW | 11 | SW |
| Berkeley Twp. | NJ | 2026-05-05 02:40 | Mesonet | 57 | 53 | 86 | 29.85 | 0.00 | 10 | SSW | 12 | SW |
| Berkeley Twp. | NJ | 2026-05-05 02:35 | Mesonet | 57 | 53 | 86 | 29.85 | 0.00 | 7 | SW | 11 | SW |
| Berkeley Twp. | NJ | 2026-05-05 02:25 | Mesonet | 57 | 53 | 86 | 29.85 | 0.00 | 8 | SW | 10 | SW |
| Berkeley Twp. | NJ | 2026-05-05 01:50 | Mesonet | 57 | 53 | 85 | 29.86 | 0.00 | 5 | SSW | 11 | SW |
| Berkeley Twp. | NJ | 2026-05-05 02:20 | Mesonet | 57 | 53 | 86 | 29.86 | 0.00 | 9 | SW | 11 | SSW |
| Berkeley Twp. | NJ | 2026-05-05 02:15 | Mesonet | 57 | 53 | 86 | 29.86 | 0.00 | 9 | SW | 11 | SSW |
| Berkeley Twp. | NJ | 2026-05-05 02:10 | Mesonet | 57 | 53 | 86 | 29.86 | 0.00 | 8 | SSW | 11 | SSW |
| Berkeley Twp. | NJ | 2026-05-05 02:05 | Mesonet | 57 | 53 | 85 | 29.86 | 0.00 | 8 | SSW | 13 | SSW |
| Berkeley Twp. | NJ | 2026-05-05 02:00 | Mesonet | 57 | 53 | 85 | 29.86 | 0.00 | 6 | SW | 10 | SW |
| Berkeley Twp. | NJ | 2026-05-05 01:55 | Mesonet | 57 | 53 | 85 | 29.86 | 0.00 | 10 | SSW | 13 | SSW |
| Berkeley Twp. | NJ | 2026-05-05 00:20 | Mesonet | 58 | 52 | 81 | 29.87 | 0.00 | 8 | SSW | 10 | S |
| Berkeley Twp. | NJ | 2026-05-05 00:10 | Mesonet | 58 | 52 | 80 | 29.88 | 0.00 | 7 | SSW | 12 | SSW |
| Berkeley Twp. | NJ | 2026-05-05 03:10 | Mesonet | 57 | 53 | 86 | 29.86 | 0.00 | 9 | SW | 11 | SSW |
| Berkeley Twp. | NJ | 2026-05-04 22:00 | Mesonet | 58 | 49 | 70 | 29.89 | 0.00 | 6 | SSW | 8 | SSW |
| Berkeley Twp. | NJ | 2026-05-04 22:30 | Mesonet | 58 | 49 | 72 | 29.89 | 0.00 | 8 | S | 9 | SSW |
| Berkeley Twp. | NJ | 2026-05-04 22:25 | Mesonet | 58 | 49 | 71 | 29.89 | 0.00 | 6 | SSW | 8 | SSW |
| Berkeley Twp. | NJ | 2026-05-04 22:20 | Mesonet | 59 | 49 | 70 | 29.89 | 0.00 | 5 | SSW | 10 | SSW |
| Berkeley Twp. | NJ | 2026-05-04 22:15 | Mesonet | 58 | 49 | 71 | 29.89 | 0.00 | 5 | SSW | 8 | S |
| Berkeley Twp. | NJ | 2026-05-04 22:10 | Mesonet | 58 | 49 | 71 | 29.89 | 0.00 | 7 | S | 8 | S |
| Berkeley Twp. | NJ | 2026-05-04 22:05 | Mesonet | 58 | 49 | 70 | 29.89 | 0.00 | 4 | S | 7 | S |
| Berkeley Twp. | NJ | 2026-05-04 21:55 | Mesonet | 59 | 49 | 69 | 29.89 | 0.00 | 6 | SSW | 8 | S |
| Berkeley Twp. | NJ | 2026-05-04 22:40 | Mesonet | 59 | 49 | 70 | 29.89 | 0.00 | 5 | SSW | 9 | S |
| Berkeley Twp. | NJ | 2026-05-04 21:50 | Mesonet | 59 | 49 | 69 | 29.89 | 0.00 | 4 | S | 7 | S |
| Berkeley Twp. | NJ | 2026-05-04 21:45 | Mesonet | 59 | 49 | 68 | 29.89 | 0.00 | 7 | S | 9 | SSW |
| Berkeley Twp. | NJ | 2026-05-04 21:40 | Mesonet | 60 | 49 | 68 | 29.89 | 0.00 | 4 | S | 10 | SSW |
| Berkeley Twp. | NJ | 2026-05-04 21:35 | Mesonet | 60 | 49 | 68 | 29.89 | 0.00 | 5 | SSW | 10 | SSW |
| Berkeley Twp. | NJ | 2026-05-04 21:30 | Mesonet | 60 | 49 | 67 | 29.89 | 0.00 | 9 | SSW | 11 | SSW |
| Berkeley Twp. | NJ | 2026-05-04 21:25 | Mesonet | 60 | 49 | 68 | 29.89 | 0.00 | 8 | SSW | 12 | SSW |
| Berkeley Twp. | NJ | 2026-05-04 22:35 | Mesonet | 58 | 49 | 71 | 29.89 | 0.00 | 6 | SSW | 9 | SSW |
| Berkeley Twp. | NJ | 2026-05-04 22:45 | Mesonet | 59 | 49 | 71 | 29.89 | 0.00 | 5 | SSW | 11 | SSW |
| Berkeley Twp. | NJ | 2026-05-05 00:05 | Mesonet | 58 | 52 | 79 | 29.88 | 0.00 | 9 | S | 11 | S |
| Berkeley Twp. | NJ | 2026-05-04 23:30 | Mesonet | 59 | 50 | 72 | 29.88 | 0.00 | 7 | S | 10 | S |
| Berkeley Twp. | NJ | 2026-05-05 00:00 | Mesonet | 58 | 51 | 78 | 29.88 | 0.00 | 6 | SSW | 10 | SSW |
| Berkeley Twp. | NJ | 2026-05-04 23:55 | Mesonet | 58 | 51 | 77 | 29.88 | 0.00 | 9 | SSW | 12 | SSW |
| Berkeley Twp. | NJ | 2026-05-04 23:50 | Mesonet | 58 | 51 | 76 | 29.88 | 0.00 | 7 | SSW | 10 | S |
| Berkeley Twp. | NJ | 2026-05-04 23:45 | Mesonet | 59 | 51 | 75 | 29.88 | 0.00 | 7 | S | 10 | S |
| Berkeley Twp. | NJ | 2026-05-04 23:40 | Mesonet | 58 | 50 | 74 | 29.88 | 0.00 | 5 | SSW | 12 | S |
| Berkeley Twp. | NJ | 2026-05-04 23:35 | Mesonet | 59 | 50 | 74 | 29.88 | 0.00 | 9 | S | 12 | SSW |
| Berkeley Twp. | NJ | 2026-05-04 23:25 | Mesonet | 59 | 50 | 72 | 29.88 | 0.00 | 8 | SSW | 9 | S |
| Berkeley Twp. | NJ | 2026-05-04 22:50 | Mesonet | 59 | 49 | 70 | 29.88 | 0.00 | 6 | S | 10 | SSW |
| Berkeley Twp. | NJ | 2026-05-04 23:20 | Mesonet | 59 | 50 | 71 | 29.88 | 0.00 | 6 | S | 10 | SSW |
| Berkeley Twp. | NJ | 2026-05-04 23:15 | Mesonet | 59 | 50 | 72 | 29.88 | 0.00 | 6 | SSW | 10 | S |
| Berkeley Twp. | NJ | 2026-05-04 23:10 | Mesonet | 58 | 49 | 72 | 29.88 | 0.00 | 5 | S | 8 | SSW |
| Berkeley Twp. | NJ | 2026-05-04 23:05 | Mesonet | 59 | 49 | 70 | 29.88 | 0.00 | 8 | S | 11 | S |
| Berkeley Twp. | NJ | 2026-05-04 23:00 | Mesonet | 59 | 49 | 70 | 29.88 | 0.00 | 7 | SSW | 10 | SSW |
| Berkeley Twp. | NJ | 2026-05-04 22:55 | Mesonet | 59 | 49 | 70 | 29.89 | 0.00 | 7 | SSW | 9 | S |
| Berkeley Twp. | NJ | 2026-05-05 03:05 | Mesonet | 57 | 53 | 86 | 29.85 | 0.00 | 8 | SW | 10 | SW |
| Berkeley Twp. | NJ | 2026-05-05 03:15 | Mesonet | 57 | 53 | 86 | 29.86 | 0.00 | 6 | SW | 11 | WSW |
| Berkeley Twp. | NJ | 2026-05-05 09:10 | Mesonet | 71 | 54 | 55 | 29.89 | 0.00 | 15 | SW | 18 | WSW |
| Berkeley Twp. | NJ | 2026-05-05 07:05 | Mesonet | 62 | 54 | 76 | 29.88 | 0.00 | 9 | SW | 13 | SW |
| Berkeley Twp. | NJ | 2026-05-05 07:35 | Mesonet | 63 | 54 | 72 | 29.89 | 0.00 | 12 | SW | 17 | SSW |
| Berkeley Twp. | NJ | 2026-05-05 07:30 | Mesonet | 63 | 54 | 73 | 29.89 | 0.00 | 11 | SW | 13 | SW |
| Berkeley Twp. | NJ | 2026-05-05 07:25 | Mesonet | 63 | 54 | 73 | 29.89 | 0.00 | 9 | SW | 13 | SW |
| Berkeley Twp. | NJ | 2026-05-05 07:20 | Mesonet | 62 | 54 | 75 | 29.89 | 0.00 | 8 | SW | 15 | SW |
| Berkeley Twp. | NJ | 2026-05-05 07:15 | Mesonet | 62 | 54 | 76 | 29.88 | 0.00 | 7 | SW | 13 | SW |
| Berkeley Twp. | NJ | 2026-05-05 07:10 | Mesonet | 62 | 54 | 76 | 29.88 | 0.00 | 7 | SW | 11 | SW |
| Berkeley Twp. | NJ | 2026-05-05 07:00 | Mesonet | 62 | 54 | 76 | 29.88 | 0.00 | 10 | SW | 12 | SW |
| Berkeley Twp. | NJ | 2026-05-05 07:45 | Mesonet | 65 | 55 | 70 | 29.89 | 0.00 | 7 | SW | 17 | SSW |
| Berkeley Twp. | NJ | 2026-05-05 06:55 | Mesonet | 62 | 54 | 76 | 29.88 | 0.00 | 10 | SW | 11 | SW |
| Berkeley Twp. | NJ | 2026-05-05 06:50 | Mesonet | 61 | 54 | 76 | 29.88 | 0.00 | 10 | SW | 11 | SSW |
| Berkeley Twp. | NJ | 2026-05-05 06:45 | Mesonet | 61 | 53 | 76 | 29.88 | 0.00 | 7 | SW | 12 | SW |
| Berkeley Twp. | NJ | 2026-05-05 06:40 | Mesonet | 61 | 53 | 75 | 29.88 | 0.00 | 8 | SW | 12 | WSW |
| Berkeley Twp. | NJ | 2026-05-05 06:35 | Mesonet | 61 | 53 | 75 | 29.87 | 0.00 | 7 | SW | 12 | SW |
| Berkeley Twp. | NJ | 2026-05-05 06:30 | Mesonet | 61 | 53 | 75 | 29.87 | 0.00 | 8 | WSW | 12 | SW |
| Berkeley Twp. | NJ | 2026-05-05 07:40 | Mesonet | 64 | 55 | 71 | 29.88 | 0.00 | 10 | SSW | 18 | SW |
| Berkeley Twp. | NJ | 2026-05-05 07:50 | Mesonet | 65 | 54 | 69 | 29.89 | 0.00 | 13 | SW | 16 | SSW |
| Berkeley Twp. | NJ | 2026-05-05 06:20 | Mesonet | 61 | 54 | 75 | 29.87 | 0.00 | 9 | WSW | 15 | SW |
| Berkeley Twp. | NJ | 2026-05-05 08:35 | Mesonet | 68 | 54 | 61 | 29.89 | 0.00 | 9 | WSW | 19 | WSW |
| Berkeley Twp. | NJ | 2026-05-05 09:05 | Mesonet | 70 | 54 | 57 | 29.90 | 0.00 | 12 | WSW | 19 | SW |
| Berkeley Twp. | NJ | 2026-05-05 09:00 | Mesonet | 70 | 54 | 57 | 29.90 | 0.00 | 13 | SW | 19 | SW |
| Berkeley Twp. | NJ | 2026-05-05 08:55 | Mesonet | 69 | 53 | 57 | 29.89 | 0.00 | 12 | SW | 20 | WSW |
| Berkeley Twp. | NJ | 2026-05-05 08:50 | Mesonet | 69 | 54 | 58 | 29.89 | 0.00 | 11 | WSW | 16 | WSW |
| Berkeley Twp. | NJ | 2026-05-05 08:45 | Mesonet | 69 | 54 | 59 | 29.89 | 0.00 | 10 | SW | 20 | SW |
| Berkeley Twp. | NJ | 2026-05-05 08:40 | Mesonet | 68 | 54 | 60 | 29.90 | 0.00 | 14 | SW | 18 | SSW |
| Berkeley Twp. | NJ | 2026-05-05 08:30 | Mesonet | 67 | 53 | 60 | 29.89 | 0.00 | 14 | WSW | 19 | SW |
| Berkeley Twp. | NJ | 2026-05-05 07:55 | Mesonet | 65 | 54 | 68 | 29.89 | 0.00 | 8 | WSW | 17 | WSW |
| Berkeley Twp. | NJ | 2026-05-05 08:25 | Mesonet | 67 | 54 | 62 | 29.89 | 0.00 | 14 | SW | 20 | SW |
| Berkeley Twp. | NJ | 2026-05-05 08:20 | Mesonet | 67 | 54 | 63 | 29.89 | 0.00 | 12 | WSW | 19 | SW |
| Berkeley Twp. | NJ | 2026-05-05 08:15 | Mesonet | 67 | 54 | 64 | 29.89 | 0.00 | 13 | SW | 20 | SW |
| Berkeley Twp. | NJ | 2026-05-05 08:10 | Mesonet | 66 | 54 | 65 | 29.89 | 0.00 | 9 | WSW | 20 | SW |
| Berkeley Twp. | NJ | 2026-05-05 08:05 | Mesonet | 66 | 54 | 66 | 29.89 | 0.00 | 11 | WSW | 17 | SW |
| Berkeley Twp. | NJ | 2026-05-05 08:00 | Mesonet | 65 | 54 | 67 | 29.89 | 0.00 | 13 | WSW | 18 | SW |
| Berkeley Twp. | NJ | 2026-05-05 06:25 | Mesonet | 61 | 53 | 75 | 29.87 | 0.00 | 7 | SW | 14 | SW |
| Berkeley Twp. | NJ | 2026-05-05 06:15 | Mesonet | 61 | 54 | 77 | 29.87 | 0.00 | 8 | SW | 16 | SW |
| Berkeley Twp. | NJ | 2026-05-05 03:20 | Mesonet | 57 | 53 | 87 | 29.86 | 0.00 | 9 | SW | 12 | WSW |
| Berkeley Twp. | NJ | 2026-05-05 04:00 | Mesonet | 57 | 53 | 86 | 29.86 | 0.00 | 7 | SW | 15 | SSW |
| Berkeley Twp. | NJ | 2026-05-05 04:30 | Mesonet | 58 | 53 | 85 | 29.86 | 0.00 | 8 | SSW | 14 | SSW |
| Berkeley Twp. | NJ | 2026-05-05 04:25 | Mesonet | 58 | 53 | 85 | 29.86 | 0.00 | 11 | SW | 15 | SW |
| Berkeley Twp. | NJ | 2026-05-05 04:20 | Mesonet | 58 | 53 | 85 | 29.86 | 0.00 | 8 | SW | 12 | SW |
| Berkeley Twp. | NJ | 2026-05-05 04:15 | Mesonet | 58 | 53 | 85 | 29.86 | 0.00 | 10 | SW | 12 | SW |
| Berkeley Twp. | NJ | 2026-05-05 04:10 | Mesonet | 58 | 53 | 85 | 29.86 | 0.00 | 8 | WSW | 12 | WSW |
| Berkeley Twp. | NJ | 2026-05-05 04:05 | Mesonet | 58 | 53 | 86 | 29.86 | 0.00 | 9 | SW | 15 | SW |
| Berkeley Twp. | NJ | 2026-05-05 03:55 | Mesonet | 57 | 53 | 86 | 29.86 | 0.00 | 10 | SW | 13 | SW |
| Berkeley Twp. | NJ | 2026-05-05 04:40 | Mesonet | 58 | 53 | 85 | 29.86 | 0.00 | 8 | SSW | 12 | SW |
| Berkeley Twp. | NJ | 2026-05-05 03:50 | Mesonet | 57 | 53 | 87 | 29.86 | 0.00 | 5 | SW | 12 | SW |
| Berkeley Twp. | NJ | 2026-05-05 03:45 | Mesonet | 57 | 53 | 87 | 29.86 | 0.00 | 8 | SW | 11 | WSW |
| Berkeley Twp. | NJ | 2026-05-05 03:40 | Mesonet | 56 | 52 | 87 | 29.86 | 0.00 | 6 | SW | 11 | SW |
| Berkeley Twp. | NJ | 2026-05-05 03:35 | Mesonet | 57 | 53 | 86 | 29.86 | 0.00 | 10 | SW | 12 | SW |
| Berkeley Twp. | NJ | 2026-05-05 03:30 | Mesonet | 57 | 53 | 87 | 29.86 | 0.00 | 11 | SW | 13 | SW |
| Berkeley Twp. | NJ | 2026-05-05 03:25 | Mesonet | 56 | 53 | 87 | 29.86 | 0.00 | 7 | SW | 10 | SW |
| Berkeley Twp. | NJ | 2026-05-05 04:35 | Mesonet | 58 | 53 | 85 | 29.86 | 0.00 | 9 | SW | 13 | SSW |
| Berkeley Twp. | NJ | 2026-05-05 04:45 | Mesonet | 58 | 53 | 84 | 29.86 | 0.00 | 10 | SSW | 12 | SW |
| Berkeley Twp. | NJ | 2026-05-05 06:10 | Mesonet | 61 | 54 | 78 | 29.87 | 0.00 | 7 | SW | 17 | SW |
| Berkeley Twp. | NJ | 2026-05-05 05:35 | Mesonet | 59 | 54 | 83 | 29.86 | 0.00 | 8 | SW | 12 | SW |
| Berkeley Twp. | NJ | 2026-05-05 06:05 | Mesonet | 60 | 54 | 79 | 29.86 | 0.00 | 18 | SW | 18 | SW |
| Berkeley Twp. | NJ | 2026-05-05 06:00 | Mesonet | 60 | 54 | 81 | 29.86 | 0.00 | 12 | SW | 18 | SW |
| Berkeley Twp. | NJ | 2026-05-05 05:55 | Mesonet | 60 | 54 | 81 | 29.86 | 0.00 | 12 | WSW | 16 | SW |
| Berkeley Twp. | NJ | 2026-05-05 05:50 | Mesonet | 60 | 54 | 82 | 29.86 | 0.00 | 12 | SW | 16 | WSW |
| Berkeley Twp. | NJ | 2026-05-05 05:45 | Mesonet | 59 | 54 | 83 | 29.86 | 0.00 | 8 | WSW | 14 | WSW |
| Berkeley Twp. | NJ | 2026-05-05 05:40 | Mesonet | 59 | 54 | 83 | 29.86 | 0.00 | 8 | SW | 16 | SW |
| Berkeley Twp. | NJ | 2026-05-05 05:30 | Mesonet | 59 | 54 | 83 | 29.87 | 0.00 | 6 | SW | 14 | WSW |
| Berkeley Twp. | NJ | 2026-05-05 04:50 | Mesonet | 58 | 53 | 85 | 29.87 | 0.00 | 8 | SW | 12 | SW |
| Berkeley Twp. | NJ | 2026-05-05 05:25 | Mesonet | 58 | 54 | 84 | 29.87 | 0.00 | 8 | SW | 13 | SW |
| Berkeley Twp. | NJ | 2026-05-05 05:20 | Mesonet | 58 | 54 | 84 | 29.86 | 0.00 | 8 | WSW | 13 | SW |
| Berkeley Twp. | NJ | 2026-05-05 05:15 | Mesonet | 58 | 53 | 84 | 29.86 | 0.00 | 11 | SW | 13 | SW |
| Berkeley Twp. | NJ | 2026-05-05 05:10 | Mesonet | 58 | 53 | 85 | 29.86 | 0.00 | 9 | SW | 13 | WSW |
| Berkeley Twp. | NJ | 2026-05-05 05:05 | Mesonet | 58 | 53 | 84 | 29.86 | 0.00 | 12 | WSW | 12 | WSW |
| Berkeley Twp. | NJ | 2026-05-05 05:00 | Mesonet | 58 | 53 | 85 | 29.87 | 0.00 | 5 | SW | 11 | WSW |
| Berkeley Twp. | NJ | 2026-05-05 04:55 | Mesonet | 58 | 53 | 85 | 29.87 | 0.00 | 6 | SW | 11 | SW |
| Berkeley Twp. | NJ | 2026-05-05 21:15 | Mesonet | 67 | 55 | 65 | 29.89 | 0.00 | 14 | SSW | 21 | SSW |
data collection created in 0.06505298614502 (queried in 0.014025) rendered in: 0.00089883804321289

